sensor_id;sensor_type;location;lat;lon;timestamp;temperature;humidity
59973;DHT22;55298;-36.624;-64.282;2022-09-24T00:00:03;18.60;47.50
59973;DHT22;55298;-36.624;-64.282;2022-09-24T00:02:32;18.50;47.80
59973;DHT22;55298;-36.624;-64.282;2022-09-24T00:05:01;18.40;48.00
59973;DHT22;55298;-36.624;-64.282;2022-09-24T00:07:29;18.50;48.20
59973;DHT22;55298;-36.624;-64.282;2022-09-24T00:09:57;18.40;48.50
59973;DHT22;55298;-36.624;-64.282;2022-09-24T00:12:31;19.50;49.70
59973;DHT22;55298;-36.624;-64.282;2022-09-24T00:15:01;18.10;49.80
59973;DHT22;55298;-36.624;-64.282;2022-09-24T00:17:29;18.00;50.50
59973;DHT22;55298;-36.624;-64.282;2022-09-24T00:20:19;18.90;51.70
59973;DHT22;55298;-36.624;-64.282;2022-09-24T00:22:48;17.70;51.60
59973;DHT22;55298;-36.624;-64.282;2022-09-24T00:25:16;18.00;51.90
59973;DHT22;55298;-36.624;-64.282;2022-09-24T00:27:54;17.70;51.60
59973;DHT22;55298;-36.624;-64.282;2022-09-24T00:30:24;17.70;51.50
59973;DHT22;55298;-36.624;-64.282;2022-09-24T00:32:52;17.70;51.60
59973;DHT22;55298;-36.624;-64.282;2022-09-24T00:35:20;17.70;51.30
59973;DHT22;55298;-36.624;-64.282;2022-09-24T00:37:49;19.40;52.20
59973;DHT22;55298;-36.624;-64.282;2022-09-24T00:40:17;17.70;51.00
59973;DHT22;55298;-36.624;-64.282;2022-09-24T00:42:49;17.80;50.80
59973;DHT22;55298;-36.624;-64.282;2022-09-24T00:45:17;17.80;50.70
59973;DHT22;55298;-36.624;-64.282;2022-09-24T00:47:45;18.00;50.70
59973;DHT22;55298;-36.624;-64.282;2022-09-24T00:50:25;17.80;50.80
59973;DHT22;55298;-36.624;-64.282;2022-09-24T00:52:57;17.70;51.00
59973;DHT22;55298;-36.624;-64.282;2022-09-24T00:55:27;17.60;51.40
59973;DHT22;55298;-36.624;-64.282;2022-09-24T00:57:58;17.50;51.70
59973;DHT22;55298;-36.624;-64.282;2022-09-24T01:00:27;17.60;52.00
59973;DHT22;55298;-36.624;-64.282;2022-09-24T01:03:04;17.40;52.20
59973;DHT22;55298;-36.624;-64.282;2022-09-24T01:05:34;17.40;52.50
59973;DHT22;55298;-36.624;-64.282;2022-09-24T01:08:05;17.40;53.00
59973;DHT22;55298;-36.624;-64.282;2022-09-24T01:19:28;17.10;54.60
59973;DHT22;55298;-36.624;-64.282;2022-09-24T01:22:07;17.00;55.50
59973;DHT22;55298;-36.624;-64.282;2022-09-24T01:27:47;16.60;57.50
59973;DHT22;55298;-36.624;-64.282;2022-09-24T01:30:22;14.80;57.70
59973;DHT22;55298;-36.624;-64.282;2022-09-24T01:32:54;16.30;59.40
59973;DHT22;55298;-36.624;-64.282;2022-09-24T01:35:31;16.10;61.00
59973;DHT22;55298;-36.624;-64.282;2022-09-24T01:38:06;17.60;61.90
59973;DHT22;55298;-36.624;-64.282;2022-09-24T01:40:39;16.10;61.50
59973;DHT22;55298;-36.624;-64.282;2022-09-24T01:43:10;16.10;61.80
59973;DHT22;55298;-36.624;-64.282;2022-09-24T01:45:39;16.10;62.10
59973;DHT22;55298;-36.624;-64.282;2022-09-24T01:48:08;16.20;62.40
59973;DHT22;55298;-36.624;-64.282;2022-09-24T01:50:57;16.10;62.40
59973;DHT22;55298;-36.624;-64.282;2022-09-24T01:53:33;15.90;62.40
59973;DHT22;55298;-36.624;-64.282;2022-09-24T01:56:09;16.00;62.60
59973;DHT22;55298;-36.624;-64.282;2022-09-24T01:58:59;16.10;62.60
59973;DHT22;55298;-36.624;-64.282;2022-09-24T02:01:52;16.10;62.50
59973;DHT22;55298;-36.624;-64.282;2022-09-24T02:04:25;16.30;61.70
59973;DHT22;55298;-36.624;-64.282;2022-09-24T02:06:59;16.30;61.20
59973;DHT22;55298;-36.624;-64.282;2022-09-24T02:09:37;16.20;61.00
59973;DHT22;55298;-36.624;-64.282;2022-09-24T02:12:24;16.20;61.20
59973;DHT22;55298;-36.624;-64.282;2022-09-24T02:15:10;16.10;61.70
59973;DHT22;55298;-36.624;-64.282;2022-09-24T02:17:42;16.10;62.00
59973;DHT22;55298;-36.624;-64.282;2022-09-24T02:20:17;16.10;62.00
59973;DHT22;55298;-36.624;-64.282;2022-09-24T02:22:48;16.10;62.20
59973;DHT22;55298;-36.624;-64.282;2022-09-24T02:25:28;16.00;62.20
59973;DHT22;55298;-36.624;-64.282;2022-09-24T02:27:59;16.10;61.80
59973;DHT22;55298;-36.624;-64.282;2022-09-24T02:30:32;16.10;61.60
59973;DHT22;55298;-36.624;-64.282;2022-09-24T02:33:06;16.10;61.40
59973;DHT22;55298;-36.624;-64.282;2022-09-24T02:35:55;16.80;60.80
59973;DHT22;55298;-36.624;-64.282;2022-09-24T02:38:25;16.20;59.80
59973;DHT22;55298;-36.624;-64.282;2022-09-24T02:40:53;16.20;59.60
59973;DHT22;55298;-36.624;-64.282;2022-09-24T02:43:23;14.50;59.00
59973;DHT22;55298;-36.624;-64.282;2022-09-24T02:45:56;16.20;59.90
59973;DHT22;55298;-36.624;-64.282;2022-09-24T02:48:24;16.50;60.10
59973;DHT22;55298;-36.624;-64.282;2022-09-24T02:50:53;16.30;60.00
59973;DHT22;55298;-36.624;-64.282;2022-09-24T02:53:23;16.40;59.90
59973;DHT22;55298;-36.624;-64.282;2022-09-24T02:55:51;17.20;60.30
59973;DHT22;55298;-36.624;-64.282;2022-09-24T02:58:19;16.30;59.50
59973;DHT22;55298;-36.624;-64.282;2022-09-24T03:00:48;16.40;58.70
59973;DHT22;55298;-36.624;-64.282;2022-09-24T03:03:18;18.60;59.30
59973;DHT22;55298;-36.624;-64.282;2022-09-24T03:05:52;16.50;57.30
59973;DHT22;55298;-36.624;-64.282;2022-09-24T03:08:21;16.50;57.80
59973;DHT22;55298;-36.624;-64.282;2022-09-24T03:10:51;16.50;58.20
59973;DHT22;55298;-36.624;-64.282;2022-09-24T03:13:21;16.50;58.30
59973;DHT22;55298;-36.624;-64.282;2022-09-24T03:15:49;16.40;58.50
59973;DHT22;55298;-36.624;-64.282;2022-09-24T03:18:19;16.40;58.70
59973;DHT22;55298;-36.624;-64.282;2022-09-24T03:20:58;16.40;58.90
59973;DHT22;55298;-36.624;-64.282;2022-09-24T03:23:27;16.30;58.60
59973;DHT22;55298;-36.624;-64.282;2022-09-24T03:25:55;16.20;59.30
59973;DHT22;55298;-36.624;-64.282;2022-09-24T03:28:24;16.00;59.60
59973;DHT22;55298;-36.624;-64.282;2022-09-24T03:30:53;16.20;59.90
59973;DHT22;55298;-36.624;-64.282;2022-09-24T03:33:44;16.10;59.90
59973;DHT22;55298;-36.624;-64.282;2022-09-24T03:36:20;16.10;60.20
59973;DHT22;55298;-36.624;-64.282;2022-09-24T03:38:54;16.00;60.50
59973;DHT22;55298;-36.624;-64.282;2022-09-24T03:41:22;15.90;60.90
59973;DHT22;55298;-36.624;-64.282;2022-09-24T03:43:50;16.00;61.40
59973;DHT22;55298;-36.624;-64.282;2022-09-24T03:46:20;16.10;61.60
59973;DHT22;55298;-36.624;-64.282;2022-09-24T03:48:49;15.80;61.90
59973;DHT22;55298;-36.624;-64.282;2022-09-24T03:51:18;15.90;61.90
59973;DHT22;55298;-36.624;-64.282;2022-09-24T03:53:48;15.80;61.80
59973;DHT22;55298;-36.624;-64.282;2022-09-24T03:56:16;16.80;62.30
59973;DHT22;55298;-36.624;-64.282;2022-09-24T03:58:44;15.70;60.70
59973;DHT22;55298;-36.624;-64.282;2022-09-24T04:01:14;15.70;60.80
59973;DHT22;55298;-36.624;-64.282;2022-09-24T04:03:46;15.70;61.60
59973;DHT22;55298;-36.624;-64.282;2022-09-24T04:06:15;15.60;61.30
59973;DHT22;55298;-36.624;-64.282;2022-09-24T04:08:43;15.60;61.60
59973;DHT22;55298;-36.624;-64.282;2022-09-24T04:11:12;15.70;61.10
59973;DHT22;55298;-36.624;-64.282;2022-09-24T04:13:39;15.70;60.30
59973;DHT22;55298;-36.624;-64.282;2022-09-24T04:16:08;15.60;59.40
59973;DHT22;55298;-36.624;-64.282;2022-09-24T04:18:37;15.80;59.50
59973;DHT22;55298;-36.624;-64.282;2022-09-24T04:21:06;15.80;59.70
59973;DHT22;55298;-36.624;-64.282;2022-09-24T04:23:34;15.70;59.80
59973;DHT22;55298;-36.624;-64.282;2022-09-24T04:26:03;16.50;60.10
59973;DHT22;55298;-36.624;-64.282;2022-09-24T04:28:30;15.80;59.30
59973;DHT22;55298;-36.624;-64.282;2022-09-24T04:31:00;15.80;59.60
59973;DHT22;55298;-36.624;-64.282;2022-09-24T04:33:29;15.60;59.70
59973;DHT22;55298;-36.624;-64.282;2022-09-24T04:35:58;15.50;61.30
59973;DHT22;55298;-36.624;-64.282;2022-09-24T04:38:25;16.90;63.00
59973;DHT22;55298;-36.624;-64.282;2022-09-24T04:41:02;15.30;61.80
59973;DHT22;55298;-36.624;-64.282;2022-09-24T04:43:31;15.30;63.20
59973;DHT22;55298;-36.624;-64.282;2022-09-24T04:46:03;15.20;63.50
59973;DHT22;55298;-36.624;-64.282;2022-09-24T04:48:31;15.30;65.40
59973;DHT22;55298;-36.624;-64.282;2022-09-24T04:51:00;15.10;65.90
59973;DHT22;55298;-36.624;-64.282;2022-09-24T04:53:34;16.30;67.20
59973;DHT22;55298;-36.624;-64.282;2022-09-24T04:56:04;15.00;66.10
59973;DHT22;55298;-36.624;-64.282;2022-09-24T04:58:37;15.00;67.50
59973;DHT22;55298;-36.624;-64.282;2022-09-24T05:01:06;14.90;68.00
59973;DHT22;55298;-36.624;-64.282;2022-09-24T05:03:37;14.80;68.50
59973;DHT22;55298;-36.624;-64.282;2022-09-24T05:06:06;14.70;68.90
59973;DHT22;55298;-36.624;-64.282;2022-09-24T05:08:33;14.50;70.40
59973;DHT22;55298;-36.624;-64.282;2022-09-24T05:11:02;14.60;70.90
59973;DHT22;55298;-36.624;-64.282;2022-09-24T05:13:31;14.60;71.40
59973;DHT22;55298;-36.624;-64.282;2022-09-24T05:16:02;14.70;72.20
59973;DHT22;55298;-36.624;-64.282;2022-09-24T05:18:29;14.50;72.50
59973;DHT22;55298;-36.624;-64.282;2022-09-24T05:20:57;14.80;73.60
59973;DHT22;55298;-36.624;-64.282;2022-09-24T05:23:25;14.80;74.40
59973;DHT22;55298;-36.624;-64.282;2022-09-24T05:25:54;14.30;74.30
59973;DHT22;55298;-36.624;-64.282;2022-09-24T05:28:30;14.30;76.10
59973;DHT22;55298;-36.624;-64.282;2022-09-24T05:30:59;14.20;75.80
59973;DHT22;55298;-36.624;-64.282;2022-09-24T05:33:27;14.10;76.70
59973;DHT22;55298;-36.624;-64.282;2022-09-24T05:35:57;14.10;77.10
59973;DHT22;55298;-36.624;-64.282;2022-09-24T05:38:26;14.10;76.50
59973;DHT22;55298;-36.624;-64.282;2022-09-24T05:40:55;15.40;77.50
59973;DHT22;55298;-36.624;-64.282;2022-09-24T05:43:24;13.90;76.10
59973;DHT22;55298;-36.624;-64.282;2022-09-24T05:45:55;14.20;76.30
59973;DHT22;55298;-36.624;-64.282;2022-09-24T05:48:25;14.20;76.20
59973;DHT22;55298;-36.624;-64.282;2022-09-24T05:50:54;14.00;75.20
59973;DHT22;55298;-36.624;-64.282;2022-09-24T05:53:23;14.30;75.10
59973;DHT22;55298;-36.624;-64.282;2022-09-24T05:55:51;15.70;76.00
59973;DHT22;55298;-36.624;-64.282;2022-09-24T05:58:23;14.20;74.80
59973;DHT22;55298;-36.624;-64.282;2022-09-24T06:00:52;14.20;74.80
59973;DHT22;55298;-36.624;-64.282;2022-09-24T06:03:20;14.20;74.30
59973;DHT22;55298;-36.624;-64.282;2022-09-24T06:05:49;14.20;74.40
59973;DHT22;55298;-36.624;-64.282;2022-09-24T06:08:19;14.10;73.70
59973;DHT22;55298;-36.624;-64.282;2022-09-24T06:10:47;14.20;72.70
59973;DHT22;55298;-36.624;-64.282;2022-09-24T06:13:17;14.10;73.20
59973;DHT22;55298;-36.624;-64.282;2022-09-24T06:15:46;14.20;74.60
59973;DHT22;55298;-36.624;-64.282;2022-09-24T06:18:14;14.30;74.70
59973;DHT22;55298;-36.624;-64.282;2022-09-24T06:20:43;14.10;74.80
59973;DHT22;55298;-36.624;-64.282;2022-09-24T06:23:12;14.00;75.30
59973;DHT22;55298;-36.624;-64.282;2022-09-24T06:25:40;14.00;76.00
59973;DHT22;55298;-36.624;-64.282;2022-09-24T06:28:08;14.00;76.00
59973;DHT22;55298;-36.624;-64.282;2022-09-24T06:30:38;13.90;76.70
59973;DHT22;55298;-36.624;-64.282;2022-09-24T06:33:08;14.20;75.60
59973;DHT22;55298;-36.624;-64.282;2022-09-24T06:35:38;13.80;74.80
59973;DHT22;55298;-36.624;-64.282;2022-09-24T06:38:10;13.90;76.20
59973;DHT22;55298;-36.624;-64.282;2022-09-24T06:40:39;14.00;75.80
59973;DHT22;55298;-36.624;-64.282;2022-09-24T06:43:08;13.80;76.20
59973;DHT22;55298;-36.624;-64.282;2022-09-24T06:45:37;13.70;77.90
59973;DHT22;55298;-36.624;-64.282;2022-09-24T06:48:10;13.60;78.70
59973;DHT22;55298;-36.624;-64.282;2022-09-24T06:50:41;13.60;79.40
59973;DHT22;55298;-36.624;-64.282;2022-09-24T06:53:12;13.60;80.30
59973;DHT22;55298;-36.624;-64.282;2022-09-24T06:55:40;13.60;81.00
59973;DHT22;55298;-36.624;-64.282;2022-09-24T06:58:13;13.50;81.00
59973;DHT22;55298;-36.624;-64.282;2022-09-24T07:03:19;13.50;81.20
59973;DHT22;55298;-36.624;-64.282;2022-09-24T07:05:47;15.00;84.00
59973;DHT22;55298;-36.624;-64.282;2022-09-24T07:08:17;13.30;84.30
59973;DHT22;55298;-36.624;-64.282;2022-09-24T07:10:47;13.20;85.50
59973;DHT22;55298;-36.624;-64.282;2022-09-24T07:13:15;13.80;86.50
59973;DHT22;55298;-36.624;-64.282;2022-09-24T07:15:43;13.20;86.10
59973;DHT22;55298;-36.624;-64.282;2022-09-24T07:18:11;13.20;86.20
59973;DHT22;55298;-36.624;-64.282;2022-09-24T07:20:40;13.10;86.10
59973;DHT22;55298;-36.624;-64.282;2022-09-24T07:23:10;14.10;87.50
59973;DHT22;55298;-36.624;-64.282;2022-09-24T07:25:39;13.00;88.00
59973;DHT22;55298;-36.624;-64.282;2022-09-24T07:28:09;13.10;88.20
59973;DHT22;55298;-36.624;-64.282;2022-09-24T07:30:40;13.80;89.00
59973;DHT22;55298;-36.624;-64.282;2022-09-24T07:33:09;13.00;89.50
59973;DHT22;55298;-36.624;-64.282;2022-09-24T07:35:38;12.80;90.30
59973;DHT22;55298;-36.624;-64.282;2022-09-24T07:38:09;12.80;90.60
59973;DHT22;55298;-36.624;-64.282;2022-09-24T07:40:39;12.70;91.30
59973;DHT22;55298;-36.624;-64.282;2022-09-24T07:43:08;12.60;92.00
59973;DHT22;55298;-36.624;-64.282;2022-09-24T07:45:39;12.50;92.30
59973;DHT22;55298;-36.624;-64.282;2022-09-24T07:48:09;12.50;92.70
59973;DHT22;55298;-36.624;-64.282;2022-09-24T07:50:40;12.50;92.60
59973;DHT22;55298;-36.624;-64.282;2022-09-24T07:53:11;12.60;92.70
59973;DHT22;55298;-36.624;-64.282;2022-09-24T07:55:39;12.60;93.40
59973;DHT22;55298;-36.624;-64.282;2022-09-24T07:58:12;12.40;93.50
59973;DHT22;55298;-36.624;-64.282;2022-09-24T08:00:41;12.50;93.80
59973;DHT22;55298;-36.624;-64.282;2022-09-24T08:03:08;12.50;93.90
59973;DHT22;55298;-36.624;-64.282;2022-09-24T08:05:42;12.50;94.20
59973;DHT22;55298;-36.624;-64.282;2022-09-24T08:08:10;12.40;94.40
59973;DHT22;55298;-36.624;-64.282;2022-09-24T08:10:39;12.30;94.70
59973;DHT22;55298;-36.624;-64.282;2022-09-24T08:13:08;12.40;94.60
59973;DHT22;55298;-36.624;-64.282;2022-09-24T08:15:35;13.00;94.90
59973;DHT22;55298;-36.624;-64.282;2022-09-24T08:18:05;12.40;95.10
59973;DHT22;55298;-36.624;-64.282;2022-09-24T08:20:37;12.30;95.20
59973;DHT22;55298;-36.624;-64.282;2022-09-24T08:23:07;13.60;95.90
59973;DHT22;55298;-36.624;-64.282;2022-09-24T08:25:36;12.30;95.70
59973;DHT22;55298;-36.624;-64.282;2022-09-24T08:28:06;12.20;95.90
59973;DHT22;55298;-36.624;-64.282;2022-09-24T08:30:35;12.20;95.60
59973;DHT22;55298;-36.624;-64.282;2022-09-24T08:33:03;12.10;96.70
59973;DHT22;55298;-36.624;-64.282;2022-09-24T08:35:32;12.00;96.80
59973;DHT22;55298;-36.624;-64.282;2022-09-24T08:38:02;12.10;96.60
59973;DHT22;55298;-36.624;-64.282;2022-09-24T08:40:35;12.20;96.80
59973;DHT22;55298;-36.624;-64.282;2022-09-24T08:43:18;12.20;96.70
59973;DHT22;55298;-36.624;-64.282;2022-09-24T08:45:56;12.20;96.80
59973;DHT22;55298;-36.624;-64.282;2022-09-24T08:48:39;12.20;97.40
59973;DHT22;55298;-36.624;-64.282;2022-09-24T08:51:17;12.30;97.40
59973;DHT22;55298;-36.624;-64.282;2022-09-24T08:56:34;12.10;97.80
59973;DHT22;55298;-36.624;-64.282;2022-09-24T08:59:23;12.40;97.30
59973;DHT22;55298;-36.624;-64.282;2022-09-24T09:08:12;12.10;98.70
59973;DHT22;55298;-36.624;-64.282;2022-09-24T09:10:42;12.00;98.70
59973;DHT22;55298;-36.624;-64.282;2022-09-24T09:13:19;10.80;98.50
59973;DHT22;55298;-36.624;-64.282;2022-09-24T09:15:53;12.30;98.60
59973;DHT22;55298;-36.624;-64.282;2022-09-24T09:18:35;12.00;98.80
59973;DHT22;55298;-36.624;-64.282;2022-09-24T09:21:16;12.00;99.00
59973;DHT22;55298;-36.624;-64.282;2022-09-24T09:23:49;11.90;99.70
59973;DHT22;55298;-36.624;-64.282;2022-09-24T09:26:19;11.90;99.10
59973;DHT22;55298;-36.624;-64.282;2022-09-24T09:28:47;11.80;98.60
59973;DHT22;55298;-36.624;-64.282;2022-09-24T09:39:50;11.90;99.00
59973;DHT22;55298;-36.624;-64.282;2022-09-24T09:42:28;11.80;98.40
59973;DHT22;55298;-36.624;-64.282;2022-09-24T09:45:01;11.80;97.80
59973;DHT22;55298;-36.624;-64.282;2022-09-24T09:47:47;11.80;98.30
59973;DHT22;55298;-36.624;-64.282;2022-09-24T09:50:54;11.60;97.30
59973;DHT22;55298;-36.624;-64.282;2022-09-24T09:53:23;11.70;97.50
59973;DHT22;55298;-36.624;-64.282;2022-09-24T09:55:57;13.40;97.90
59973;DHT22;55298;-36.624;-64.282;2022-09-24T09:58:30;11.80;95.30
59973;DHT22;55298;-36.624;-64.282;2022-09-24T10:01:10;11.90;96.00
59973;DHT22;55298;-36.624;-64.282;2022-09-24T10:03:49;12.00;93.70
59973;DHT22;55298;-36.624;-64.282;2022-09-24T10:06:25;12.00;94.10
59973;DHT22;55298;-36.624;-64.282;2022-09-24T10:09:04;11.90;93.80
59973;DHT22;55298;-36.624;-64.282;2022-09-24T10:11:34;11.90;92.80
59973;DHT22;55298;-36.624;-64.282;2022-09-24T10:14:03;12.10;92.20
59973;DHT22;55298;-36.624;-64.282;2022-09-24T10:16:40;12.00;93.20
59973;DHT22;55298;-36.624;-64.282;2022-09-24T10:19:31;12.00;92.90
59973;DHT22;55298;-36.624;-64.282;2022-09-24T10:22:16;12.10;92.50
59973;DHT22;55298;-36.624;-64.282;2022-09-24T10:24:46;12.10;92.10
59973;DHT22;55298;-36.624;-64.282;2022-09-24T10:27:29;12.10;91.90
59973;DHT22;55298;-36.624;-64.282;2022-09-24T10:30:00;12.10;92.30
59973;DHT22;55298;-36.624;-64.282;2022-09-24T10:32:39;12.00;92.80
59973;DHT22;55298;-36.624;-64.282;2022-09-24T10:35:19;12.00;92.90
59973;DHT22;55298;-36.624;-64.282;2022-09-24T10:37:53;11.90;92.70
59973;DHT22;55298;-36.624;-64.282;2022-09-24T10:40:24;11.90;93.00
59973;DHT22;55298;-36.624;-64.282;2022-09-24T10:43:00;11.90;92.80
59973;DHT22;55298;-36.624;-64.282;2022-09-24T10:48:25;12.10;92.20
59973;DHT22;55298;-36.624;-64.282;2022-09-24T10:51:15;12.50;91.30
59973;DHT22;55298;-36.624;-64.282;2022-09-24T10:56:47;12.60;91.00
59973;DHT22;55298;-36.624;-64.282;2022-09-24T11:02:32;13.90;83.30
59973;DHT22;55298;-36.624;-64.282;2022-09-24T11:10:51;14.40;77.00
59973;DHT22;55298;-36.624;-64.282;2022-09-24T11:13:47;14.20;78.00
59973;DHT22;55298;-36.624;-64.282;2022-09-24T11:22:14;14.10;80.00
59973;DHT22;55298;-36.624;-64.282;2022-09-24T11:30:54;14.20;81.10
59973;DHT22;55298;-36.624;-64.282;2022-09-24T11:33:43;14.50;79.90
59973;DHT22;55298;-36.624;-64.282;2022-09-24T11:36:39;14.40;81.10
59973;DHT22;55298;-36.624;-64.282;2022-09-24T11:39:29;14.50;80.90
59973;DHT22;55298;-36.624;-64.282;2022-09-24T11:47:53;16.00;72.30
59973;DHT22;55298;-36.624;-64.282;2022-09-24T11:50:47;16.10;71.00
59973;DHT22;55298;-36.624;-64.282;2022-09-24T11:53:36;15.80;71.20
59973;DHT22;55298;-36.624;-64.282;2022-09-24T11:56:19;15.70;75.20
59973;DHT22;55298;-36.624;-64.282;2022-09-24T11:59:14;14.90;79.90
59973;DHT22;55298;-36.624;-64.282;2022-09-24T12:01:53;14.90;80.70
59973;DHT22;55298;-36.624;-64.282;2022-09-24T12:04:50;14.90;81.70
59973;DHT22;55298;-36.624;-64.282;2022-09-24T12:07:26;14.90;81.80
59973;DHT22;55298;-36.624;-64.282;2022-09-24T12:13:18;15.00;83.50
59973;DHT22;55298;-36.624;-64.282;2022-09-24T12:15:54;15.00;83.60
59973;DHT22;55298;-36.624;-64.282;2022-09-24T12:18:44;15.20;83.90
59973;DHT22;55298;-36.624;-64.282;2022-09-24T12:21:22;15.10;83.60
59973;DHT22;55298;-36.624;-64.282;2022-09-24T12:24:02;15.20;84.10
59973;DHT22;55298;-36.624;-64.282;2022-09-24T12:26:35;15.40;84.30
59973;DHT22;55298;-36.624;-64.282;2022-09-24T12:35:39;15.50;84.00
59973;DHT22;55298;-36.624;-64.282;2022-09-24T12:41:16;15.50;86.40
59973;DHT22;55298;-36.624;-64.282;2022-09-24T12:44:04;15.60;85.40
59973;DHT22;55298;-36.624;-64.282;2022-09-24T12:46:56;15.70;85.20
59973;DHT22;55298;-36.624;-64.282;2022-09-24T12:49:32;15.90;84.90
59973;DHT22;55298;-36.624;-64.282;2022-09-24T12:54:42;16.10;82.50
59973;DHT22;55298;-36.624;-64.282;2022-09-24T12:57:22;15.90;83.50
59973;DHT22;55298;-36.624;-64.282;2022-09-24T12:59:57;15.70;83.30
59973;DHT22;55298;-36.624;-64.282;2022-09-24T13:02:44;15.90;83.70
59973;DHT22;55298;-36.624;-64.282;2022-09-24T13:05:27;15.90;83.90
59973;DHT22;55298;-36.624;-64.282;2022-09-24T13:08:57;15.90;84.10
59973;DHT22;55298;-36.624;-64.282;2022-09-24T13:10:58;16.20;81.10
59973;DHT22;55298;-36.624;-64.282;2022-09-24T13:13:28;16.40;80.20
59973;DHT22;55298;-36.624;-64.282;2022-09-24T13:16:17;16.50;79.30
59973;DHT22;55298;-36.624;-64.282;2022-09-24T13:18:55;16.70;78.70
59973;DHT22;55298;-36.624;-64.282;2022-09-24T13:21:27;17.50;78.30
59973;DHT22;55298;-36.624;-64.282;2022-09-24T13:23:56;18.10;78.70
59973;DHT22;55298;-36.624;-64.282;2022-09-24T13:26:30;16.70;78.30
59973;DHT22;55298;-36.624;-64.282;2022-09-24T13:29:19;16.60;78.10
59973;DHT22;55298;-36.624;-64.282;2022-09-24T13:31:52;16.50;79.00
59973;DHT22;55298;-36.624;-64.282;2022-09-24T13:34:27;16.60;79.20
59973;DHT22;55298;-36.624;-64.282;2022-09-24T13:37:08;16.60;78.90
59973;DHT22;55298;-36.624;-64.282;2022-09-24T13:39:47;16.60;78.80
59973;DHT22;55298;-36.624;-64.282;2022-09-24T13:42:30;16.60;77.70
59973;DHT22;55298;-36.624;-64.282;2022-09-24T13:45:04;16.90;77.00
59973;DHT22;55298;-36.624;-64.282;2022-09-24T13:47:46;18.30;77.90
59973;DHT22;55298;-36.624;-64.282;2022-09-24T13:50:24;17.00;76.00
59973;DHT22;55298;-36.624;-64.282;2022-09-24T13:55:47;17.40;74.50
59973;DHT22;55298;-36.624;-64.282;2022-09-24T13:58:26;17.50;73.00
59973;DHT22;55298;-36.624;-64.282;2022-09-24T14:00:57;17.50;72.40
59973;DHT22;55298;-36.624;-64.282;2022-09-24T14:03:28;17.50;71.20
59973;DHT22;55298;-36.624;-64.282;2022-09-24T14:06:08;17.50;70.00
59973;DHT22;55298;-36.624;-64.282;2022-09-24T14:08:39;17.60;70.00
59973;DHT22;55298;-36.624;-64.282;2022-09-24T14:11:19;17.70;70.30
59973;DHT22;55298;-36.624;-64.282;2022-09-24T14:13:50;17.80;67.50
59973;DHT22;55298;-36.624;-64.282;2022-09-24T14:16:20;17.90;67.40
59973;DHT22;55298;-36.624;-64.282;2022-09-24T14:19:01;17.90;67.10
59973;DHT22;55298;-36.624;-64.282;2022-09-24T14:21:34;18.00;66.70
59973;DHT22;55298;-36.624;-64.282;2022-09-24T14:24:11;18.20;65.70
59973;DHT22;55298;-36.624;-64.282;2022-09-24T14:26:52;18.30;59.70
59973;DHT22;55298;-36.624;-64.282;2022-09-24T14:29:30;18.40;53.30
59973;DHT22;55298;-36.624;-64.282;2022-09-24T14:32:03;18.40;51.40
59973;DHT22;55298;-36.624;-64.282;2022-09-24T14:34:38;18.40;49.60
59973;DHT22;55298;-36.624;-64.282;2022-09-24T14:37:32;18.40;47.90
59973;DHT22;55298;-36.624;-64.282;2022-09-24T14:40:18;18.30;46.50
59973;DHT22;55298;-36.624;-64.282;2022-09-24T14:42:48;18.30;47.10
59973;DHT22;55298;-36.624;-64.282;2022-09-24T14:45:24;18.40;46.80
59973;DHT22;55298;-36.624;-64.282;2022-09-24T14:48:00;18.20;47.10
59973;DHT22;55298;-36.624;-64.282;2022-09-24T14:50:50;18.20;47.60
59973;DHT22;55298;-36.624;-64.282;2022-09-24T14:53:34;18.00;50.00
59973;DHT22;55298;-36.624;-64.282;2022-09-24T14:56:18;17.70;55.70
59973;DHT22;55298;-36.624;-64.282;2022-09-24T14:58:48;17.90;56.50
59973;DHT22;55298;-36.624;-64.282;2022-09-24T15:01:20;17.20;55.40
59973;DHT22;55298;-36.624;-64.282;2022-09-24T15:03:56;17.30;56.60
59973;DHT22;55298;-36.624;-64.282;2022-09-24T15:12:16;17.40;56.10
59973;DHT22;55298;-36.624;-64.282;2022-09-24T15:14:57;17.40;52.70
59973;DHT22;55298;-36.624;-64.282;2022-09-24T15:17:32;17.50;53.20
59973;DHT22;55298;-36.624;-64.282;2022-09-24T15:20:03;17.70;53.80
59973;DHT22;55298;-36.624;-64.282;2022-09-24T15:22:35;17.90;52.50
59973;DHT22;55298;-36.624;-64.282;2022-09-24T15:25:05;19.60;52.00
59973;DHT22;55298;-36.624;-64.282;2022-09-24T15:27:38;18.70;51.20
59973;DHT22;55298;-36.624;-64.282;2022-09-24T15:30:16;18.10;51.50
59973;DHT22;55298;-36.624;-64.282;2022-09-24T15:32:46;18.00;50.90
59973;DHT22;55298;-36.624;-64.282;2022-09-24T15:35:21;18.20;50.60
59973;DHT22;55298;-36.624;-64.282;2022-09-24T15:37:52;18.00;49.70
59973;DHT22;55298;-36.624;-64.282;2022-09-24T15:40:24;18.00;50.60
59973;DHT22;55298;-36.624;-64.282;2022-09-24T15:42:56;17.90;49.60
59973;DHT22;55298;-36.624;-64.282;2022-09-24T15:45:30;17.90;50.00
59973;DHT22;55298;-36.624;-64.282;2022-09-24T15:47:58;17.80;50.00
59973;DHT22;55298;-36.624;-64.282;2022-09-24T15:50:33;17.80;50.40
59973;DHT22;55298;-36.624;-64.282;2022-09-24T15:53:20;17.80;51.30
59973;DHT22;55298;-36.624;-64.282;2022-09-24T15:55:57;17.70;51.70
59973;DHT22;55298;-36.624;-64.282;2022-09-24T15:58:26;17.70;52.40
59973;DHT22;55298;-36.624;-64.282;2022-09-24T16:00:55;17.60;53.30
59973;DHT22;55298;-36.624;-64.282;2022-09-24T16:03:26;17.70;53.20
59973;DHT22;55298;-36.624;-64.282;2022-09-24T16:05:55;17.60;53.00
59973;DHT22;55298;-36.624;-64.282;2022-09-24T16:08:25;17.60;53.80
59973;DHT22;55298;-36.624;-64.282;2022-09-24T16:10:54;17.60;55.30
59973;DHT22;55298;-36.624;-64.282;2022-09-24T16:13:22;17.70;54.30
59973;DHT22;55298;-36.624;-64.282;2022-09-24T16:15:51;17.80;53.40
59973;DHT22;55298;-36.624;-64.282;2022-09-24T16:18:21;17.80;52.60
59973;DHT22;55298;-36.624;-64.282;2022-09-24T16:20:52;17.80;52.30
59973;DHT22;55298;-36.624;-64.282;2022-09-24T16:23:19;17.70;52.00
59973;DHT22;55298;-36.624;-64.282;2022-09-24T16:25:57;17.10;51.40
59973;DHT22;55298;-36.624;-64.282;2022-09-24T16:28:27;18.00;51.70
59973;DHT22;55298;-36.624;-64.282;2022-09-24T16:30:56;18.10;51.30
59973;DHT22;55298;-36.624;-64.282;2022-09-24T16:33:25;18.10;51.20
59973;DHT22;55298;-36.624;-64.282;2022-09-24T16:36:02;17.10;51.00
59973;DHT22;55298;-36.624;-64.282;2022-09-24T16:38:33;18.20;53.60
59973;DHT22;55298;-36.624;-64.282;2022-09-24T16:41:02;18.20;52.20
59973;DHT22;55298;-36.624;-64.282;2022-09-24T16:43:33;18.30;51.80
59973;DHT22;55298;-36.624;-64.282;2022-09-24T16:46:06;18.30;51.90
59973;DHT22;55298;-36.624;-64.282;2022-09-24T16:48:34;18.30;52.60
59973;DHT22;55298;-36.624;-64.282;2022-09-24T16:51:07;18.40;53.80
59973;DHT22;55298;-36.624;-64.282;2022-09-24T16:53:35;18.40;51.70